Time;durP1;ratioP1;P1;durP2;ratioP2;P2;SDS_P1;SDS_P2;PMS_P1;PMS_P2;Temp;Humidity;BMP_temperature;BMP_pressure;BME280_temperature;BME280_humidity;BME280_pressure;Samples;Min_cycle;Max_cycle;Signal;HPM_P1;HPM_P2
2022/11/27 00:00:01;;;;;;;51.72;33.33;;;;;;;6.70;78.74;101518.41;4860657;28;97512;-95
2022/11/27 00:02:26;;;;;;;61.92;37.13;;;;;;;7.21;77.96;101592.38;4844240;28;97209;-96
2022/11/27 00:04:52;;;;;;;51.65;32.40;;;;;;;6.91;78.36;101561.91;4852386;28;100161;-96
2022/11/27 00:07:21;;;;;;;55.08;34.78;;;;;;;6.70;79.11;101536.66;4847350;28;101568;-96
2022/11/27 00:09:46;;;;;;;56.67;33.42;;;;;;;7.05;78.30;101578.47;4855792;28;97298;-95
2022/11/27 00:12:17;;;;;;;52.65;33.25;;;;;;;6.78;77.84;101535.81;4849455;28;96825;-95
2022/11/27 00:14:47;;;;;;;59.17;33.83;;;;;;;7.09;78.15;101585.41;4852819;28;99955;-95
2022/11/27 00:17:13;;;;;;;55.88;33.85;;;;;;;7.08;77.93;101578.47;4844594;28;100252;-95
2022/11/27 00:19:38;;;;;;;55.05;33.63;;;;;;;6.88;78.43;101564.53;4856780;28;97666;-96
2022/11/27 00:22:04;;;;;;;56.67;32.72;;;;;;;6.75;78.73;101554.06;4846291;28;96935;-95
2022/11/27 00:24:30;;;;;;;57.40;34.42;;;;;;;6.60;79.28;101540.13;4860738;28;97514;-95
2022/11/27 00:26:55;;;;;;;51.75;34.00;;;;;;;7.07;79.37;101604.56;4843589;28;99472;-96
2022/11/27 00:29:21;;;;;;;51.05;31.52;;;;;;;6.90;78.95;101579.31;4863280;28;97422;-95
2022/11/27 00:31:46;;;;;;;55.85;32.10;;;;;;;6.97;78.52;101573.22;4862397;28;97392;-95
2022/11/27 00:34:12;;;;;;;56.70;33.72;;;;;;;7.00;78.27;101581.06;4843435;28;99991;-95
2022/11/27 00:36:38;;;;;;;55.20;34.38;;;;;;;6.81;78.33;101561.03;4840314;28;100224;-95
2022/11/27 00:39:04;;;;;;;50.85;31.02;;;;;;;7.09;78.45;101605.44;4842350;28;97062;-95
2022/11/27 00:41:30;;;;;;;52.67;33.25;;;;;;;7.00;79.09;101596.72;4853158;28;96966;-95
2022/11/27 00:43:56;;;;;;;56.58;34.85;;;;;;;6.80;78.76;101554.06;4855659;28;101237;-95
2022/11/27 00:46:28;;;;;;;55.75;32.88;;;;;;;7.11;78.37;101595.88;4843002;28;100953;-96
2022/11/27 00:48:57;;;;;;;59.83;32.17;;;;;;;7.13;77.89;101596.75;4844049;29;97443;-96
2022/11/27 00:51:24;;;;;;;55.70;32.95;;;;;;;7.03;78.60;101601.06;4840984;28;96870;-95
2022/11/27 00:53:50;;;;;;;57.55;34.17;;;;;;;6.75;78.65;101571.47;4843220;28;101156;-96
2022/11/27 00:56:23;;;;;;;53.15;33.17;;;;;;;6.99;77.87;101581.06;4857786;28;100831;-95
2022/11/27 00:58:50;;;;;;;56.65;33.38;;;;;;;6.80;78.01;101556.66;4833311;28;97318;-95
2022/11/27 01:01:20;;;;;;;52.53;31.35;;;;;;;7.28;77.73;101627.22;4856548;28;96949;-95
2022/11/27 01:03:48;;;;;;;58.35;33.35;;;;;;;6.97;77.52;101565.38;4844184;28;100429;-95
2022/11/27 01:06:17;;;;;;;58.20;34.15;;;;;;;7.02;77.73;101583.69;4870312;28;99943;-95
2022/11/27 01:08:46;;;;;;;60.45;35.40;;;;;;;7.07;77.40;101576.72;4854308;28;96816;-95
2022/11/27 01:11:17;;;;;;;55.63;34.28;;;;;;;6.92;78.04;101582.81;4842277;28;97651;-94
2022/11/27 01:13:43;;;;;;;55.40;32.13;;;;;;;6.94;78.78;101593.22;4858103;28;100248;-95
2022/11/27 01:16:23;;;;;;;53.40;32.63;;;;;;;6.72;78.23;101550.56;4842821;28;100604;-94
2022/11/27 01:18:49;;;;;;;53.45;31.85;;;;;;;6.68;78.60;101554.91;4839931;29;96812;-96
2022/11/27 01:21:20;;;;;;;55.88;32.70;;;;;;;6.69;78.51;101547.94;4850510;28;97025;-95
2022/11/27 01:23:46;;;;;;;55.17;33.93;;;;;;;7.01;78.50;101595.88;4843010;28;101228;-96
2022/11/27 01:26:12;;;;;;;54.55;31.90;;;;;;;7.01;77.81;101585.41;4856293;28;100822;-95
2022/11/27 01:28:40;;;;;;;52.90;32.88;;;;;;;7.03;78.31;101595.84;4844866;28;96940;-95
2022/11/27 01:31:10;;;;;;;53.55;32.67;;;;;;;7.01;77.64;101564.53;4849177;28;97327;-95
2022/11/27 01:33:35;;;;;;;50.63;30.45;;;;;;;6.72;77.91;101534.91;4846146;28;100991;-95
2022/11/27 01:36:04;;;;;;;56.72;34.53;;;;;;;7.22;77.43;101597.59;4846703;28;101145;-95
2022/11/27 01:38:31;;;;;;;57.55;33.05;;;;;;;6.84;77.95;101568.88;4851502;28;96824;-96
2022/11/27 01:40:58;;;;;;;58.45;34.45;;;;;;;7.03;77.25;101585.41;4879092;28;97171;-95
2022/11/27 01:43:42;;;;;;;58.45;34.35;;;;;;;7.07;77.42;101586.28;4864002;28;100136;-95
2022/11/27 01:46:36;;;;;;;64.43;36.28;;;;;;;7.06;77.72;101606.28;4850504;28;98660;-95
2022/11/27 01:49:07;;;;;;;60.58;33.90;;;;;;;6.69;78.65;101561.00;4859143;28;97280;-96
2022/11/27 01:51:35;;;;;;;59.15;33.38;;;;;;;7.03;78.41;101609.78;4865828;28;96842;-95
2022/11/27 01:54:00;;;;;;;59.15;33.92;;;;;;;6.93;78.92;101599.34;4845368;28;100264;-96
2022/11/27 01:56:26;;;;;;;60.05;35.20;;;;;;;6.87;78.46;101573.22;4859494;28;97610;-96
2022/11/27 01:58:52;;;;;;;59.40;35.13;;;;;;;7.10;78.20;101612.38;4846960;28;96801;-95
2022/11/27 02:01:17;;;;;;;63.58;36.42;;;;;;;6.75;78.42;101572.34;4844274;28;96671;-95
2022/11/27 02:03:43;;;;;;;57.55;34.40;;;;;;;6.98;79.10;101621.97;4872164;28;98548;-92
2022/11/27 02:06:12;;;;;;;56.83;35.72;;;;;;;6.76;79.10;101584.50;4860731;28;101107;-95
2022/11/27 02:08:37;;;;;;;60.80;35.22;;;;;;;6.91;79.64;101619.34;4850572;28;96791;-95
2022/11/27 02:11:26;;;;;;;57.45;34.50;;;;;;;6.70;79.39;101570.59;4859286;28;97209;-96
2022/11/27 02:14:19;;;;;;;60.92;34.78;;;;;;;6.92;78.85;101589.75;4849634;28;100085;-96
2022/11/27 02:17:03;;;;;;;55.63;33.40;;;;;;;7.01;78.77;101614.13;4843639;28;100946;-96
2022/11/27 02:19:46;;;;;;;53.75;32.90;;;;;;;6.92;79.14;101608.91;4866318;28;96671;-96
2022/11/27 02:22:17;;;;;;;55.25;32.38;;;;;;;6.95;78.91;101587.13;4860759;28;97951;-96
2022/11/27 02:24:59;;;;;;;60.78;35.97;;;;;;;6.95;78.67;101605.41;4872970;28;98524;-96
2022/11/27 02:27:45;;;;;;;55.50;34.47;;;;;;;6.73;79.13;101583.63;4841114;28;99733;-96
2022/11/27 02:30:11;;;;;;;52.22;33.47;;;;;;;6.92;79.18;101613.25;4858264;28;96686;-96
2022/11/27 02:32:41;;;;;;;52.58;32.13;;;;;;;6.89;79.18;101602.78;4844795;28;96768;-96
2022/11/27 02:35:21;;;;;;;52.70;32.20;;;;;;;6.87;79.44;101604.56;4860829;28;101930;-96
2022/11/27 02:37:48;;;;;;;50.50;32.50;;;;;;;6.75;79.34;101588.00;4844967;28;101007;-96
2022/11/27 02:40:27;;;;;;;56.83;34.25;;;;;;;6.84;79.63;101599.34;4846856;28;96741;-96
2022/11/27 02:43:14;;;;;;;57.72;34.28;;;;;;;6.95;79.30;101614.13;4859400;28;96739;-96
2022/11/27 02:45:47;;;;;;;55.05;32.78;;;;;;;7.03;79.30;101617.59;4868453;28;100189;-96
2022/11/27 02:48:15;;;;;;;59.22;33.45;;;;;;;7.02;79.50;101601.97;4872416;28;98552;-95
2022/11/27 02:50:42;;;;;;;54.47;31.67;;;;;;;7.03;79.08;101593.25;4846309;28;96755;-96
2022/11/27 02:53:12;;;;;;;56.80;32.70;;;;;;;7.01;79.06;101595.88;4876427;28;96871;-96
2022/11/27 02:55:39;;;;;;;56.30;33.42;;;;;;;7.06;79.01;101592.38;4844330;28;101505;-96
2022/11/27 02:58:08;;;;;;;60.67;33.53;;;;;;;7.09;78.89;101600.22;4876244;28;97234;-95
2022/11/27 03:00:34;;;;;;;61.20;35.53;;;;;;;7.26;78.59;101606.31;4841558;28;96773;-96
2022/11/27 03:03:05;;;;;;;62.92;35.17;;;;;;;7.21;78.28;101581.94;4845334;28;96885;-96
2022/11/27 03:05:35;;;;;;;57.58;33.08;;;;;;;6.82;78.49;101549.72;4865164;28;98542;-96
2022/11/27 03:08:03;;;;;;;60.90;33.13;;;;;;;6.89;78.56;101556.66;4855132;28;101153;-96
2022/11/27 03:10:33;;;;;;;57.20;32.80;;;;;;;6.97;78.38;101573.22;4873954;28;98015;-95
2022/11/27 03:13:02;;;;;;;60.50;35.60;;;;;;;6.90;77.89;101534.06;4848275;28;96792;-96
2022/11/27 03:15:51;;;;;;;62.15;33.65;;;;;;;7.17;77.28;101575.84;4843813;28;101229;-96
2022/11/27 03:18:40;;;;;;;62.35;34.05;;;;;;;7.10;78.27;101595.00;4879610;28;101299;-96
2022/11/27 03:21:29;;;;;;;59.00;33.72;;;;;;;7.02;78.51;101594.97;4859806;28;97342;-95
2022/11/27 03:23:56;;;;;;;58.40;32.92;;;;;;;7.09;78.82;101592.38;4837841;28;96792;-96
2022/11/27 03:26:22;;;;;;;65.40;34.75;;;;;;;7.05;78.53;101591.50;4859899;28;99200;-96
2022/11/27 03:28:49;;;;;;;67.28;36.70;;;;;;;7.20;78.31;101607.19;4840489;29;100140;-96
2022/11/27 03:31:14;;;;;;;61.08;35.20;;;;;;;7.10;78.54;101594.09;4875464;28;96726;-95
2022/11/27 03:33:40;;;;;;;62.85;34.95;;;;;;;7.14;78.38;101604.56;4841363;28;96757;-96
2022/11/27 03:36:14;;;;;;;60.28;34.35;;;;;;;6.94;79.07;101604.53;4845145;28;101923;-96
2022/11/27 03:38:40;;;;;;;56.25;33.97;;;;;;;6.98;79.20;101606.31;4844727;28;101806;-96
2022/11/27 03:41:12;;;;;;;62.83;35.38;;;;;;;7.05;79.10;101601.09;4859538;28;96786;-96
2022/11/27 03:44:00;;;;;;;62.50;35.33;;;;;;;6.90;79.38;101591.50;4871452;28;97371;-96
2022/11/27 03:46:40;;;;;;;63.80;34.42;;;;;;;6.99;79.54;101587.16;4850729;28;101300;-95
2022/11/27 03:49:18;;;;;;;65.15;37.15;;;;;;;6.95;79.01;101587.13;4856276;28;101314;-96
2022/11/27 03:51:54;;;;;;;69.15;37.28;;;;;;;6.90;79.27;101570.63;4860467;28;96761;-95
2022/11/27 03:54:31;;;;;;;66.50;37.13;;;;;;;6.87;78.70;101558.44;4848055;29;96801;-95
2022/11/27 03:57:05;;;;;;;64.97;38.25;;;;;;;6.98;79.07;101574.97;4869259;28;100640;-95
2022/11/27 03:59:36;;;;;;;63.55;37.17;;;;;;;7.21;78.75;101580.22;4875240;28;98474;-96
2022/11/27 04:02:01;;;;;;;70.27;37.43;;;;;;;6.84;78.81;101544.53;4845364;28;96729;-96
2022/11/27 04:04:27;;;;;;;69.60;36.63;;;;;;;7.02;78.82;101579.31;4856127;28;96951;-95
2022/11/27 04:06:52;;;;;;;66.70;37.50;;;;;;;7.00;79.01;101573.22;4843743;28;101864;-96
2022/11/27 04:09:18;;;;;;;69.32;37.17;;;;;;;6.90;79.36;101566.25;4841080;28;99994;-95
2022/11/27 04:11:43;;;;;;;66.75;36.17;;;;;;;7.00;79.67;101565.38;4856003;28;96803;-95
2022/11/27 04:14:09;;;;;;;60.03;35.08;;;;;;;7.06;79.09;101561.91;4837162;28;97320;-96
2022/11/27 04:16:35;;;;;;;61.75;35.33;;;;;;;6.75;78.68;101509.72;4858269;28;101068;-96
2022/11/27 04:19:00;;;;;;;64.97;35.53;;;;;;;6.86;79.09;101548.84;4868897;28;100693;-95
2022/11/27 04:21:31;;;;;;;73.78;36.85;;;;;;;6.95;79.05;101540.16;4842333;28;96678;-96
2022/11/27 04:24:01;;;;;;;66.05;36.63;;;;;;;6.73;78.47;101492.31;4852584;28;96847;-95
2022/11/27 04:26:29;;;;;;;67.13;36.85;;;;;;;6.82;78.10;101496.66;4854465;28;100044;-95
2022/11/27 04:28:54;;;;;;;70.60;37.90;;;;;;;7.02;78.73;101537.53;4849401;28;100017;-96
2022/11/27 04:31:20;;;;;;;66.97;38.28;;;;;;;6.62;79.00;101489.69;4868536;28;96773;-96
2022/11/27 04:33:50;;;;;;;64.20;37.23;;;;;;;6.75;79.14;101507.09;4863743;28;96947;-96
2022/11/27 04:36:15;;;;;;;64.55;36.35;;;;;;;7.02;79.33;101549.72;4840126;28;101287;-96
2022/11/27 04:38:41;;;;;;;66.65;35.95;;;;;;;6.97;78.88;101531.44;4843047;28;99799;-96
2022/11/27 04:41:07;;;;;;;61.47;35.03;;;;;;;6.83;78.71;101506.22;4846266;28;97472;-96
2022/11/27 04:43:35;;;;;;;57.23;32.87;;;;;;;6.84;78.61;101521.88;4844060;28;96815;-95
2022/11/27 04:46:03;;;;;;;63.42;36.25;;;;;;;6.71;78.74;101488.81;4855285;28;101421;-96
2022/11/27 04:48:34;;;;;;;66.70;36.15;;;;;;;6.89;79.07;101534.91;4840474;28;101006;-96
2022/11/27 04:50:59;;;;;;;63.05;34.95;;;;;;;7.07;79.41;101547.09;4850484;28;96791;-96
2022/11/27 04:53:30;;;;;;;62.08;36.00;;;;;;;7.12;78.68;101543.63;4858610;28;97277;-96
2022/11/27 04:55:56;;;;;;;62.50;35.25;;;;;;;6.91;78.68;101510.56;4847419;28;101141;-96
2022/11/27 04:58:24;;;;;;;91.10;35.33;;;;;;;6.77;78.21;101471.41;4837199;29;100186;-96
2022/11/27 05:00:55;;;;;;;66.72;36.28;;;;;;;6.70;78.36;101480.13;4861659;28;96839;-96
2022/11/27 05:03:21;;;;;;;68.80;35.20;;;;;;;6.70;78.42;101476.66;4846544;28;96866;-96
2022/11/27 05:05:54;;;;;;;65.82;37.60;;;;;;;6.93;78.72;101528.84;4863775;28;98113;-95
2022/11/27 05:08:25;;;;;;;62.38;36.00;;;;;;;6.80;78.61;101507.94;4858112;28;100088;-96
2022/11/27 05:11:09;;;;;;;70.20;38.42;;;;;;;6.92;78.17;101507.09;4855473;28;96659;-96
2022/11/27 05:13:34;;;;;;;68.70;34.33;;;;;;;6.73;78.29;101484.47;4834929;28;97348;-96
2022/11/27 05:16:00;;;;;;;58.25;34.60;;;;;;;6.72;79.39;101530.59;4845796;28;101320;-96
2022/11/27 05:18:34;;;;;;;90.13;36.25;;;;;;;7.06;79.42;101559.28;4841033;28;100207;-96
2022/11/27 05:21:04;;;;;;;56.50;31.73;;;;;;;6.54;79.44;101496.63;4850383;28;97290;-96
2022/11/27 05:23:31;;;;;;;63.28;34.38;;;;;;;6.74;79.52;101544.47;4845872;28;96912;-96
2022/11/27 05:25:59;;;;;;;60.20;34.58;;;;;;;6.75;79.58;101542.78;4844688;28;100599;-96
2022/11/27 05:28:27;;;;;;;60.17;32.15;;;;;;;6.57;79.50;101494.91;4850242;28;100832;-96
2022/11/27 05:30:55;;;;;;;56.55;30.15;;;;;;;6.80;79.70;101544.47;4849477;28;96816;-96
2022/11/27 05:33:23;;;;;;;62.53;32.70;;;;;;;6.79;79.87;101553.19;4862646;28;96939;-96
2022/11/27 05:35:49;;;;;;;60.13;32.67;;;;;;;6.50;79.81;101503.56;4861082;28;100015;-96
2022/11/27 05:38:14;;;;;;;57.72;32.40;;;;;;;6.53;79.69;101507.94;4841084;28;101121;-96
2022/11/27 05:40:40;;;;;;;53.75;31.05;;;;;;;6.85;79.51;101544.50;4848668;28;96717;-96
2022/11/27 05:43:06;;;;;;;59.63;32.45;;;;;;;7.14;78.83;101564.53;4846524;28;97194;-96
2022/11/27 05:45:31;;;;;;;54.47;30.27;;;;;;;6.59;79.37;101513.16;4858649;28;98444;-96
2022/11/27 05:47:57;;;;;;;51.83;29.60;;;;;;;6.89;79.64;101558.41;4849012;28;100138;-96
2022/11/27 05:50:22;;;;;;;56.35;31.05;;;;;;;6.84;79.56;101561.03;4870444;28;96826;-96
2022/11/27 05:52:48;;;;;;;62.93;30.90;;;;;;;6.66;79.30;101511.41;4869003;28;96870;-96
2022/11/27 05:55:14;;;;;;;54.13;29.80;;;;;;;6.88;79.00;101530.59;4854899;28;100263;-96
2022/11/27 05:57:39;;;;;;;52.83;30.20;;;;;;;6.77;78.76;101509.69;4855904;28;97290;-96
2022/11/27 06:00:14;;;;;;;58.42;30.38;;;;;;;7.08;79.20;101586.28;4850954;28;98348;-96
2022/11/27 06:02:41;;;;;;;58.45;32.03;;;;;;;6.85;79.68;101552.34;4866492;28;97054;-96
2022/11/27 06:05:09;;;;;;;56.00;31.98;;;;;;;6.70;79.62;101521.88;4851654;28;101041;-96
2022/11/27 06:07:35;;;;;;;59.20;33.85;;;;;;;6.79;79.69;101534.91;4863369;28;101039;-96
2022/11/27 06:10:13;;;;;;;55.78;31.13;;;;;;;7.00;79.43;101578.44;4864744;28;96702;-95
2022/11/27 06:12:39;;;;;;;56.33;30.67;;;;;;;6.89;79.51;101561.91;4862881;28;96113;-96
2022/11/27 06:15:12;;;;;;;59.13;31.50;;;;;;;7.19;79.04;101581.06;4869779;28;100185;-96
2022/11/27 06:17:38;;;;;;;52.95;28.60;;;;;;;6.70;79.10;101513.19;4855826;28;101122;-96
2022/11/27 06:20:04;;;;;;;48.42;27.33;;;;;;;6.84;79.60;101555.81;4841171;29;96963;-96
2022/11/27 06:22:32;;;;;;;60.60;31.23;;;;;;;6.83;79.34;101532.31;4840698;28;96999;-96
2022/11/27 06:24:58;;;;;;;63.65;31.85;;;;;;;6.91;78.33;101527.97;4847429;28;100615;-96
2022/11/27 06:27:24;;;;;;;52.58;31.02;;;;;;;6.71;78.85;101535.78;4849860;28;99911;-96
2022/11/27 06:29:51;;;;;;;51.33;30.30;;;;;;;6.75;79.12;101561.03;4845171;28;96769;-96
2022/11/27 06:32:17;;;;;;;47.50;28.42;;;;;;;6.75;79.09;101548.84;4860130;28;96874;-96
2022/11/27 06:34:42;;;;;;;47.38;27.88;;;;;;;6.78;79.55;101551.47;4849478;28;99814;-96
2022/11/27 06:37:08;;;;;;;52.58;29.70;;;;;;;6.71;78.74;101525.34;4847937;28;100443;-96
2022/11/27 06:39:34;;;;;;;50.30;28.60;;;;;;;6.66;78.36;101521.84;4860439;28;97456;-96
2022/11/27 06:41:59;;;;;;;44.65;25.38;;;;;;;6.81;78.77;101558.44;4845608;28;96917;-96
2022/11/27 06:44:25;;;;;;;44.78;26.20;;;;;;;6.81;79.18;101568.88;4860144;28;101014;-96
2022/11/27 06:46:52;;;;;;;48.03;28.57;;;;;;;6.75;79.30;101534.94;4876681;28;97167;-96
2022/11/27 06:49:19;;;;;;;44.47;26.55;;;;;;;6.92;78.97;101566.25;4845921;28;96811;-96
2022/11/27 06:51:45;;;;;;;43.73;27.20;;;;;;;6.87;78.96;101571.47;4864082;28;96889;-96
2022/11/27 06:54:13;;;;;;;54.20;27.35;;;;;;;6.95;78.40;101572.38;4880015;28;100730;-96
2022/11/27 06:56:38;;;;;;;50.75;29.75;;;;;;;6.68;78.35;101535.78;4875641;28;101535;-96
2022/11/27 06:59:13;;;;;;;47.58;28.00;;;;;;;6.60;78.37;101530.53;4868553;28;96892;-96
2022/11/27 07:01:39;;;;;;;47.03;27.88;;;;;;;6.64;79.02;101570.59;4884517;28;96742;-96
2022/11/27 07:04:05;;;;;;;51.92;27.63;;;;;;;6.80;78.02;101557.53;4866535;28;100941;-96
2022/11/27 07:06:30;;;;;;;46.10;27.65;;;;;;;6.84;77.78;101568.00;4845746;28;99597;-96
2022/11/27 07:08:58;;;;;;;48.58;27.35;;;;;;;6.49;78.18;101545.34;4848856;28;96889;-96
2022/11/27 07:11:26;;;;;;;48.58;26.83;;;;;;;6.30;78.32;101519.19;4844875;28;97048;-96
2022/11/27 07:13:54;;;;;;;48.13;27.92;;;;;;;6.28;78.58;101526.16;4835633;28;99627;-96
2022/11/27 07:16:20;;;;;;;74.30;30.05;;;;;;;6.35;78.91;101540.06;4847318;28;101216;-96
2022/11/27 07:18:47;;;;;;;51.57;28.90;;;;;;;6.71;78.78;101612.31;4871407;28;96785;-96
2022/11/27 07:21:16;;;;;;;55.85;31.75;;;;;;;6.32;78.74;101543.53;4848593;28;96800;-96
2022/11/27 07:23:44;;;;;;;54.28;28.05;;;;;;;6.29;78.81;101534.84;4861983;28;99663;-96
2022/11/27 07:26:12;;;;;;;51.03;28.83;;;;;;;6.29;78.34;101527.03;4863476;28;98606;-96
2022/11/27 07:28:38;;;;;;;54.97;29.63;;;;;;;6.42;78.97;101556.59;4848794;28;96910;-96
2022/11/27 07:31:04;;;;;;;50.85;28.92;;;;;;;6.48;78.16;101552.25;4864960;28;96892;-96
2022/11/27 07:33:30;;;;;;;48.27;28.30;;;;;;;6.50;78.45;101557.50;4839015;28;100363;-96
2022/11/27 07:36:04;;;;;;;60.47;31.33;;;;;;;6.55;77.88;101559.25;4844415;28;101675;-96
2022/11/27 07:38:30;;;;;;;51.45;27.60;;;;;;;6.14;78.69;101512.19;4857593;28;96698;-96
2022/11/27 07:41:00;;;;;;;44.03;25.20;;;;;;;6.45;79.15;101556.59;4846614;28;96867;-94
2022/11/27 07:43:26;;;;;;;41.53;24.33;;;;;;;6.32;79.22;101527.03;4834142;28;100184;-94
2022/11/27 07:45:54;;;;;;;39.37;23.60;;;;;;;6.52;78.96;101559.25;4841617;28;101258;-96
2022/11/27 07:48:20;;;;;;;39.78;23.45;;;;;;;6.60;78.58;101559.25;4838840;28;96805;-96
2022/11/27 07:50:46;;;;;;;38.95;22.17;;;;;;;6.46;78.62;101527.06;4844145;28;98472;-96
2022/11/27 07:53:18;;;;;;;38.77;23.63;;;;;;;6.37;79.41;101514.88;4865626;28;100383;-96
2022/11/27 07:55:44;;;;;;;39.13;21.92;;;;;;;6.80;78.67;101567.97;4841225;28;101118;-96
2022/11/27 07:58:14;;;;;;;37.50;22.23;;;;;;;6.58;78.22;101527.09;4848823;28;96786;-96
2022/11/27 08:00:47;;;;;;;41.45;23.10;;;;;;;6.75;78.40;101553.22;4839073;28;97079;-94
2022/11/27 08:03:15;;;;;;;44.88;24.60;;;;;;;7.06;77.96;101587.16;4859222;28;97109;-96
2022/11/27 08:05:43;;;;;;;41.38;23.27;;;;;;;6.69;78.65;101551.47;4835582;28;100592;-96
2022/11/27 08:08:09;;;;;;;41.17;24.55;;;;;;;6.63;78.17;101522.72;4858292;28;96886;-96
2022/11/27 08:10:38;;;;;;;43.35;24.58;;;;;;;6.70;77.47;101516.66;4837415;28;97459;-96
2022/11/27 08:13:04;;;;;;;36.75;21.50;;;;;;;6.89;77.92;101545.38;4835715;28;101363;-96
2022/11/27 08:15:30;;;;;;;36.53;23.23;;;;;;;6.80;77.58;101521.00;4840442;28;101502;-96
2022/11/27 08:17:56;;;;;;;37.38;22.75;;;;;;;6.96;78.03;101558.44;4858465;28;97127;-95
2022/11/27 08:20:22;;;;;;;37.40;25.02;;;;;;;6.85;77.36;101526.22;4863356;28;97617;-96
2022/11/27 08:22:51;;;;;;;38.13;23.70;;;;;;;6.73;78.11;101523.63;4839561;28;99371;-94
2022/11/27 08:25:22;;;;;;;30.20;19.85;;;;;;;6.93;77.63;101557.56;4858178;28;98874;-95
2022/11/27 08:27:49;;;;;;;32.33;19.27;;;;;;;6.72;78.68;101532.28;4857906;28;96779;-96
2022/11/27 08:30:15;;;;;;;34.92;21.83;;;;;;;7.10;78.41;101586.28;4840523;28;96813;-96
2022/11/27 08:32:48;;;;;;;32.83;21.85;;;;;;;6.75;77.94;101511.44;4857824;28;98512;-96
2022/11/27 08:35:17;;;;;;;34.15;22.05;;;;;;;6.89;78.90;101561.03;4834197;28;100067;-96
2022/11/27 08:37:45;;;;;;;39.25;21.83;;;;;;;6.83;78.81;101550.59;4837397;28;96826;-96
2022/11/27 08:40:16;;;;;;;31.38;21.65;;;;;;;6.88;79.54;101567.13;4844242;28;96901;-96
2022/11/27 08:42:42;;;;;;;34.75;22.00;;;;;;;7.14;78.29;101559.31;4858294;28;101130;-96
2022/11/27 08:45:14;;;;;;;31.80;19.88;;;;;;;7.13;78.00;101547.13;4837656;28;99646;-96
2022/11/27 08:47:43;;;;;;;32.10;20.27;;;;;;;6.79;78.23;101521.00;4850607;28;97141;-96
2022/11/27 08:50:11;;;;;;;35.05;20.92;;;;;;;6.92;78.38;101540.16;4840000;28;96981;-96
2022/11/27 08:52:37;;;;;;;31.17;20.02;;;;;;;6.78;78.53;101529.72;4840023;28;99756;-96
2022/11/27 08:55:03;;;;;;;30.05;18.73;;;;;;;7.00;78.74;101561.91;4831173;28;100847;-96
2022/11/27 08:57:31;;;;;;;30.95;19.75;;;;;;;6.76;78.71;101521.00;4859494;28;97274;-96
2022/11/27 08:59:57;;;;;;;39.30;23.85;;;;;;;7.20;78.56;101560.16;4835410;28;97421;-95
2022/11/27 09:02:28;;;;;;;32.90;19.85;;;;;;;7.43;77.20;101588.88;4854179;28;101155;-95
2022/11/27 09:04:53;;;;;;;34.38;20.38;;;;;;;7.08;78.21;101557.56;4851247;28;101740;-96
2022/11/27 09:07:19;;;;;;;40.93;22.30;;;;;;;7.29;78.32;101595.00;4856484;28;96769;-95
2022/11/27 09:09:45;;;;;;;36.78;21.65;;;;;;;7.13;78.62;101570.63;4831876;28;97315;-95
2022/11/27 09:12:10;;;;;;;36.22;21.33;;;;;;;6.66;79.28;101514.03;4832877;28;102754;-96
2022/11/27 09:14:38;;;;;;;32.67;20.33;;;;;;;6.65;79.56;101522.72;4842850;28;101494;-95
2022/11/27 09:17:12;;;;;;;34.92;20.95;;;;;;;6.84;80.12;101557.56;4855750;28;96796;-95
2022/11/27 09:19:40;;;;;;;31.65;20.35;;;;;;;6.54;80.69;101515.78;4840776;28;98445;-96
2022/11/27 09:22:19;;;;;;;29.02;17.88;;;;;;;6.89;80.99;101571.47;4854708;28;100368;-95
2022/11/27 09:24:50;;;;;;;32.70;19.80;;;;;;;6.63;80.82;101524.47;4867929;28;99652;-96
2022/11/27 09:27:15;;;;;;;29.00;18.30;;;;;;;7.05;79.83;101575.84;4854938;28;96854;-96
2022/11/27 09:29:44;;;;;;;27.92;18.00;;;;;;;7.13;79.45;101562.81;4849875;28;96848;-96
2022/11/27 09:32:12;;;;;;;33.95;19.55;;;;;;;7.30;79.00;101581.94;4848664;28;101173;-96
2022/11/27 09:34:40;;;;;;;29.83;18.55;;;;;;;7.09;79.47;101547.97;4851803;28;98091;-95
2022/11/27 09:37:08;;;;;;;30.73;19.75;;;;;;;7.05;79.12;101539.28;4852513;28;97369;-95
2022/11/27 09:39:35;;;;;;;30.85;19.08;;;;;;;6.69;78.88;101493.16;4870035;28;95949;-96
2022/11/27 09:42:05;;;;;;;25.55;16.88;;;;;;;6.67;79.67;101474.03;4844098;28;101325;-95
2022/11/27 09:44:38;;;;;;;31.08;17.95;;;;;;;7.35;79.01;101563.66;4841199;28;99881;-95
2022/11/27 09:47:29;;;;;;;28.42;17.98;;;;;;;7.34;78.48;101543.63;4842857;28;97301;-95
2022/11/27 09:50:16;;;;;;;28.90;18.63;;;;;;;7.36;79.18;101547.97;4845252;28;97143;-93
2022/11/27 09:52:55;;;;;;;28.23;18.25;;;;;;;7.57;78.68;101551.44;4830719;28;101408;-93
2022/11/27 09:55:37;;;;;;;30.92;19.05;;;;;;;7.53;77.51;101531.38;4837866;28;99842;-92
2022/11/27 09:58:17;;;;;;;26.77;18.10;;;;;;;7.36;78.71;101536.63;4844466;28;96795;-92
2022/11/27 10:00:43;;;;;;;29.58;18.73;;;;;;;7.49;78.57;101538.38;4848994;28;96914;-93
2022/11/27 10:03:14;;;;;;;28.10;18.17;;;;;;;7.41;78.36;101545.34;4858140;28;101155;-93
2022/11/27 10:06:19;;;;;;;27.58;16.85;;;;;;;7.25;78.93;101539.28;4858966;28;99092;-93
2022/11/27 10:09:01;;;;;;;29.13;18.90;;;;;;;7.35;78.78;101543.59;4850737;28;96854;-92
2022/11/27 10:11:30;;;;;;;29.43;18.20;;;;;;;7.29;78.77;101525.34;4847731;28;97194;-92
2022/11/27 10:14:06;;;;;;;27.45;15.98;;;;;;;7.29;79.35;101534.91;4858446;28;100910;-92
2022/11/27 10:16:37;;;;;;;28.13;18.35;;;;;;;7.33;79.12;101532.31;4867694;28;101636;-92
2022/11/27 10:19:12;;;;;;;23.42;15.55;;;;;;;7.31;78.80;101527.97;4856234;28;96834;-92
2022/11/27 10:21:43;;;;;;;25.65;15.95;;;;;;;7.43;78.87;101520.09;4863240;28;97318;-92
2022/11/27 10:24:21;;;;;;;37.58;20.58;;;;;;;7.61;78.10;101525.28;4855003;28;101388;-92
2022/11/27 10:26:48;;;;;;;23.42;16.00;;;;;;;7.84;76.77;101517.34;4847933;28;99357;-92
2022/11/27 10:29:35;;;;;;;25.52;15.73;;;;;;;7.70;76.82;101508.69;4845211;28;96817;-93
2022/11/27 10:32:15;;;;;;;22.75;15.52;;;;;;;7.57;76.89;101507.88;4838382;28;97229;-94
2022/11/27 10:34:44;;;;;;;22.30;14.32;;;;;;;7.42;77.59;101487.88;4839939;29;101321;-92
2022/11/27 10:37:46;;;;;;;20.65;14.38;;;;;;;7.57;76.49;101507.00;4852993;28;101138;-92
2022/11/27 10:40:11;;;;;;;;;;;;;;;7.47;77.64;101508.75;4822525;29;97295;-91
2022/11/27 10:42:56;;;;;;;26.05;15.50;;;;;;;7.30;77.80;101467.03;4857178;28;97340;-89
2022/11/27 10:45:25;;;;;;;22.88;14.98;;;;;;;7.57;77.72;101499.16;4841019;28;98635;-91
2022/11/27 10:47:50;;;;;;;25.85;14.52;;;;;;;7.48;77.05;101494.84;4859695;28;100317;-91
2022/11/27 10:50:18;;;;;;;22.85;15.45;;;;;;;7.33;77.73;101479.19;4859983;28;97177;-92
2022/11/27 10:53:05;;;;;;;24.80;16.08;;;;;;;7.39;77.63;101466.13;4847644;28;96942;-91
2022/11/27 10:55:55;;;;;;;26.85;17.33;;;;;;;7.62;76.80;101487.81;4839611;28;100161;-91
2022/11/27 10:58:30;;;;;;;25.42;17.10;;;;;;;7.53;77.78;101490.44;4852919;28;101426;-91
2022/11/27 11:01:07;;;;;;;27.13;18.02;;;;;;;7.54;77.43;101479.13;4850088;28;97402;-91
2022/11/27 11:03:33;;;;;;;28.45;17.75;;;;;;;7.51;77.01;101460.84;4851624;28;97226;-89
2022/11/27 11:06:01;;;;;;;23.88;16.55;;;;;;;7.55;77.19;101457.34;4834860;28;100650;-91
2022/11/27 11:08:28;;;;;;;27.38;16.70;;;;;;;7.62;77.60;101476.47;4834880;28;101270;-90
2022/11/27 11:11:00;;;;;;;25.10;16.23;;;;;;;7.68;77.27;101461.66;4838928;28;97305;-90
2022/11/27 11:13:32;;;;;;;;;;;;;;;7.76;77.40;101461.63;4858540;28;96806;-88
2022/11/27 11:16:10;;;;;;;;;;;;;;;7.80;77.48;101458.13;4850406;28;101818;-91
2022/11/27 11:18:48;;;;;;;23.15;15.77;;;;;;;7.79;76.83;101455.50;4861138;28;100294;-93
2022/11/27 11:21:31;;;;;;;26.30;16.63;;;;;;;7.88;76.40;101461.59;4835884;28;97980;-90
2022/11/27 11:24:01;;;;;;;30.15;17.40;;;;;;;7.96;76.52;101465.88;4851964;28;97368;-90
2022/11/27 11:26:30;;;;;;;24.85;16.58;;;;;;;7.87;76.81;101458.97;4857086;28;101242;-92